createdAt,value
2023-04-05T00:01:07.960Z,11.00
2023-04-05T00:03:36.316Z,11.00
2023-04-05T00:06:05.306Z,11.00
2023-04-05T00:08:33.204Z,10.90
2023-04-05T00:11:01.050Z,10.90
2023-04-05T00:13:30.406Z,10.90
2023-04-05T00:16:01.071Z,10.90
2023-04-05T00:18:34.183Z,10.90
2023-04-05T00:21:03.274Z,10.90
2023-04-05T00:23:38.346Z,10.90
2023-04-05T00:26:06.450Z,10.90
2023-04-05T00:28:36.370Z,10.90
2023-04-05T00:31:05.217Z,10.90
2023-04-05T00:33:33.522Z,10.90
2023-04-05T00:36:11.464Z,10.80
2023-04-05T00:38:40.536Z,10.90
2023-04-05T00:41:08.860Z,10.90
2023-04-05T00:43:38.130Z,10.90
2023-04-05T00:46:07.370Z,10.90
2023-04-05T00:48:36.297Z,10.90
2023-04-05T00:51:09.238Z,10.80
2023-04-05T00:53:37.887Z,10.80
2023-04-05T00:56:06.974Z,10.80
2023-04-05T00:58:34.805Z,10.80
2023-04-05T01:01:22.263Z,10.80
2023-04-05T01:03:59.767Z,10.80
2023-04-05T01:06:48.458Z,10.80
2023-04-05T01:09:30.355Z,10.80
2023-04-05T01:12:02.305Z,10.80
2023-04-05T01:14:30.303Z,10.80
2023-04-05T01:16:59.536Z,10.80
2023-04-05T01:19:31.105Z,10.80
2023-04-05T01:22:38.458Z,10.70
2023-04-05T01:25:41.458Z,10.70
2023-04-05T01:28:42.014Z,10.70
2023-04-05T01:31:22.880Z,10.70
2023-04-05T01:33:59.214Z,10.70
2023-04-05T01:36:34.819Z,10.70
2023-04-05T01:39:06.204Z,10.70
2023-04-05T01:41:34.367Z,10.80
2023-04-05T01:44:02.607Z,10.70
2023-04-05T01:46:31.975Z,10.70
2023-04-05T01:49:00.008Z,10.80
2023-04-05T01:51:27.992Z,10.70
2023-04-05T01:53:55.864Z,10.80
2023-04-05T01:56:23.815Z,10.80
2023-04-05T01:58:51.690Z,10.80
2023-04-05T02:01:20.246Z,10.80
2023-04-05T02:03:49.601Z,10.70
2023-04-05T02:06:17.636Z,10.80
2023-04-05T02:08:45.795Z,10.70
2023-04-05T02:11:13.648Z,10.80
2023-04-05T02:13:41.537Z,10.80
2023-04-05T02:16:10.379Z,10.80
2023-04-05T02:18:38.643Z,10.80
2023-04-05T02:21:10.668Z,10.70
2023-04-05T02:23:38.929Z,10.80
2023-04-05T02:26:07.004Z,10.80
2023-04-05T02:28:35.483Z,10.80
2023-04-05T02:31:03.345Z,10.70
2023-04-05T02:33:31.246Z,10.70
2023-04-05T02:35:59.165Z,10.70
2023-04-05T02:38:28.376Z,10.70
2023-04-05T02:40:56.240Z,10.70
2023-04-05T02:43:24.217Z,10.70
2023-04-05T02:45:52.747Z,10.70
2023-04-05T02:48:21.017Z,10.70
2023-04-05T02:50:50.054Z,10.70
2023-04-05T02:53:19.360Z,10.70
2023-04-05T02:55:57.244Z,10.70
2023-04-05T02:58:25.826Z,10.70
2023-04-05T03:00:55.060Z,10.70
2023-04-05T03:03:31.670Z,10.70
2023-04-05T03:06:09.742Z,10.70
2023-04-05T03:08:44.058Z,10.70
2023-04-05T03:11:16.023Z,10.70
2023-04-05T03:13:47.869Z,10.70
2023-04-05T03:16:29.159Z,10.70
2023-04-05T03:18:58.787Z,10.70
2023-04-05T03:21:29.899Z,10.70
2023-04-05T03:24:07.682Z,10.70
2023-04-05T03:26:44.864Z,10.60
2023-04-05T03:29:14.318Z,10.60
2023-04-05T03:31:42.388Z,10.60
2023-04-05T03:34:10.836Z,10.60
2023-04-05T03:36:47.714Z,10.60
2023-04-05T03:39:34.500Z,10.60
2023-04-05T03:42:03.917Z,10.60
2023-04-05T03:44:31.895Z,10.60
2023-04-05T03:46:59.857Z,10.60
2023-04-05T03:49:27.716Z,10.60
2023-04-05T03:51:56.387Z,10.60
2023-04-05T03:54:24.373Z,10.60
2023-04-05T03:56:56.826Z,10.60
2023-04-05T03:59:26.570Z,10.60
2023-04-05T04:01:54.788Z,10.60
2023-04-05T04:04:25.113Z,10.60
2023-04-05T04:06:53.044Z,10.60
2023-04-05T04:09:25.164Z,10.60
2023-04-05T04:11:53.058Z,10.60
2023-04-05T04:14:22.895Z,10.60
2023-04-05T04:17:29.466Z,10.50
2023-04-05T04:20:15.249Z,10.60
2023-04-05T04:22:53.941Z,10.50
2023-04-05T04:25:45.998Z,10.50
2023-04-05T04:28:44.644Z,10.50
2023-04-05T04:31:25.104Z,10.50
2023-04-05T04:34:13.379Z,10.50
2023-04-05T04:37:01.804Z,10.50
2023-04-05T04:39:52.816Z,10.50
2023-04-05T04:42:38.769Z,10.50
2023-04-05T04:45:15.952Z,10.50
2023-04-05T04:47:49.035Z,10.50
2023-04-05T04:50:33.074Z,10.40
2023-04-05T04:53:02.752Z,10.50
2023-04-05T04:55:30.743Z,10.50
2023-04-05T04:57:58.751Z,10.50
2023-04-05T05:00:26.969Z,10.40
2023-04-05T05:02:57.078Z,10.50
2023-04-05T05:05:26.415Z,10.50
2023-04-05T05:07:56.015Z,10.50
2023-04-05T05:10:23.881Z,10.50
2023-04-05T05:12:53.015Z,10.50
2023-04-05T05:15:21.233Z,10.50
2023-04-05T05:17:53.759Z,10.50
2023-04-05T05:20:22.468Z,10.50
2023-04-05T05:22:51.168Z,10.50
2023-04-05T05:25:21.490Z,10.50
2023-04-05T05:27:50.957Z,10.50
2023-04-05T05:30:20.659Z,10.50
2023-04-05T05:32:48.568Z,10.50
2023-04-05T05:35:16.710Z,10.50
2023-04-05T05:37:44.740Z,10.50
2023-04-05T05:40:13.573Z,10.50
2023-04-05T05:42:42.968Z,10.60
2023-04-05T05:45:11.941Z,10.60
2023-04-05T05:47:39.970Z,10.60
2023-04-05T05:50:10.028Z,10.60
2023-04-05T05:52:37.969Z,10.60
2023-04-05T05:55:07.184Z,10.60
2023-04-05T05:57:36.672Z,10.60
2023-04-05T06:00:10.793Z,10.60
2023-04-05T06:02:42.945Z,10.60
2023-04-05T06:05:10.916Z,10.70
2023-04-05T06:07:39.004Z,10.70
2023-04-05T06:10:09.385Z,10.70
2023-04-05T06:12:37.320Z,10.70
2023-04-05T06:15:08.537Z,10.70
2023-04-05T06:17:41.904Z,10.80
2023-04-05T06:20:12.072Z,10.80
2023-04-05T06:22:41.283Z,10.80
2023-04-05T06:25:12.240Z,10.80
2023-04-05T06:27:40.173Z,10.90
2023-04-05T06:30:11.163Z,10.90
2023-04-05T06:32:39.242Z,10.90
2023-04-05T06:35:09.066Z,10.90
2023-04-05T06:37:36.955Z,11.00
2023-04-05T06:40:06.006Z,11.00
2023-04-05T06:42:33.906Z,11.00
2023-04-05T06:45:06.909Z,11.00
2023-04-05T06:47:36.568Z,11.10
2023-04-05T06:50:05.769Z,11.10
2023-04-05T06:52:34.749Z,11.10
2023-04-05T06:55:03.637Z,11.20
2023-04-05T06:57:32.023Z,11.20
2023-04-05T06:59:59.879Z,11.20
2023-04-05T07:02:27.817Z,11.30
2023-04-05T07:05:03.622Z,11.30
2023-04-05T07:07:31.826Z,11.30
2023-04-05T07:09:59.848Z,11.30
2023-04-05T07:12:27.779Z,11.40
2023-04-05T07:14:55.753Z,11.40
2023-04-05T07:17:23.864Z,11.40
2023-04-05T07:19:51.956Z,11.50
2023-04-05T07:22:21.161Z,11.50
2023-04-05T07:24:49.454Z,11.60
2023-04-05T07:27:17.344Z,11.60
2023-04-05T07:29:47.149Z,11.60
2023-04-05T07:32:16.099Z,11.70
2023-04-05T07:34:44.030Z,11.70
2023-04-05T07:37:11.929Z,11.80
2023-04-05T07:39:41.424Z,11.80
2023-04-05T07:42:09.394Z,11.80
2023-04-05T07:44:37.249Z,11.80
2023-04-05T07:47:05.399Z,11.90
2023-04-05T07:49:33.642Z,11.90
2023-04-05T07:52:01.509Z,11.90
2023-04-05T07:54:29.520Z,12.00
2023-04-05T07:56:58.766Z,12.00
2023-04-05T07:59:26.898Z,12.10
2023-04-05T08:01:57.201Z,12.20
2023-04-05T08:04:29.965Z,12.30
2023-04-05T08:06:57.816Z,12.40
2023-04-05T08:09:26.082Z,12.60
2023-04-05T08:11:53.964Z,12.70
2023-04-05T08:14:23.143Z,12.90
2023-04-05T08:16:51.867Z,13.10
2023-04-05T08:19:19.742Z,13.40
2023-04-05T08:21:47.662Z,13.60
2023-04-05T08:24:15.741Z,13.80
2023-04-05T08:26:44.107Z,14.00
2023-04-05T08:29:12.084Z,14.20
2023-04-05T08:31:41.371Z,14.40
2023-04-05T08:34:09.394Z,14.60
2023-04-05T08:36:37.285Z,14.80
2023-04-05T08:39:05.420Z,14.90
2023-04-05T08:41:37.824Z,15.00
2023-04-05T08:44:07.079Z,15.20
2023-04-05T08:46:36.089Z,15.30
2023-04-05T08:49:08.785Z,15.30
2023-04-05T08:51:39.347Z,15.40
2023-04-05T08:54:07.840Z,15.50
2023-04-05T08:56:37.427Z,15.50
2023-04-05T08:59:09.419Z,15.50
2023-04-05T09:01:42.769Z,15.40
2023-04-05T09:04:17.989Z,15.40
2023-04-05T09:06:46.466Z,15.40
2023-04-05T09:09:17.586Z,15.30
2023-04-05T09:11:45.657Z,15.30
2023-04-05T09:14:13.800Z,15.30
2023-04-05T09:16:43.536Z,15.20
2023-04-05T09:19:12.816Z,15.20
2023-04-05T09:22:01.023Z,15.10
2023-04-05T09:24:35.323Z,15.10
2023-04-05T09:27:08.557Z,15.00
2023-04-05T09:29:37.113Z,15.00
2023-04-05T09:32:08.253Z,15.00
2023-04-05T09:34:38.590Z,14.90
2023-04-05T09:37:15.822Z,14.90
2023-04-05T09:39:44.939Z,14.90
2023-04-05T09:42:15.496Z,14.80
2023-04-05T09:44:54.059Z,14.80
2023-04-05T09:47:24.976Z,14.80
2023-04-05T09:49:58.804Z,14.80
2023-04-05T09:52:29.541Z,14.70
2023-04-05T09:55:00.378Z,14.70
2023-04-05T09:57:30.628Z,14.70
2023-04-05T09:59:58.705Z,14.70
2023-04-05T10:02:35.919Z,14.70
2023-04-05T10:05:08.071Z,14.60
2023-04-05T10:07:36.849Z,14.60
2023-04-05T10:10:05.875Z,14.60
2023-04-05T10:12:34.424Z,14.60
2023-04-05T10:15:02.305Z,14.60
2023-04-05T10:17:39.969Z,14.50
2023-04-05T10:20:16.769Z,14.50
2023-04-05T10:23:00.597Z,14.50
2023-04-05T10:25:50.356Z,14.40
2023-04-05T10:28:31.488Z,14.40
2023-04-05T10:31:10.907Z,14.40
2023-04-05T10:33:45.388Z,14.40
2023-04-05T10:36:28.564Z,14.40
2023-04-05T10:39:04.771Z,14.40
2023-04-05T10:41:40.886Z,14.40
2023-04-05T10:44:25.629Z,14.40
2023-04-05T10:46:56.493Z,14.40
2023-04-05T10:49:43.727Z,14.40
2023-04-05T10:52:13.429Z,14.40
2023-04-05T10:54:41.948Z,14.40
2023-04-05T10:57:11.708Z,14.40
2023-04-05T10:59:44.717Z,14.40
2023-04-05T11:02:14.419Z,14.40
2023-04-05T11:04:42.950Z,14.40
2023-04-05T11:07:17.513Z,14.40
2023-04-05T11:09:57.040Z,14.40
2023-04-05T11:13:06.856Z,14.30
2023-04-05T11:15:36.688Z,14.40
2023-04-05T11:18:11.447Z,14.30
2023-04-05T11:20:45.947Z,14.30
2023-04-05T11:23:18.671Z,14.30
2023-04-05T11:25:52.464Z,14.40
2023-04-05T11:28:31.729Z,14.40
2023-04-05T11:31:14.894Z,14.30
2023-04-05T11:34:00.579Z,14.30
2023-04-05T11:36:37.838Z,14.40
2023-04-05T11:39:30.312Z,14.30
2023-04-05T11:42:02.888Z,14.40
2023-04-05T11:44:41.827Z,14.30
2023-04-05T11:47:10.791Z,14.30
2023-04-05T11:49:39.369Z,14.40
2023-04-05T11:52:16.442Z,14.40
2023-04-05T11:54:47.255Z,14.40
2023-04-05T11:57:19.403Z,14.40
2023-04-05T11:59:47.347Z,14.50
2023-04-05T12:02:15.779Z,14.40
2023-04-05T12:04:43.792Z,14.50
2023-04-05T12:07:21.465Z,14.40
2023-04-05T12:10:18.228Z,14.40
2023-04-05T12:12:47.694Z,14.50
2023-04-05T12:15:18.735Z,14.50
2023-04-05T12:17:49.556Z,14.50
2023-04-05T12:20:20.422Z,14.50
2023-04-05T12:22:50.907Z,14.50
2023-04-05T12:25:21.793Z,14.40
2023-04-05T12:27:49.805Z,14.50
2023-04-05T12:30:19.852Z,14.50
2023-04-05T12:32:51.092Z,14.40
2023-04-05T12:35:21.855Z,14.50
2023-04-05T12:37:52.685Z,14.40
2023-04-05T12:40:25.511Z,14.40
2023-04-05T12:42:53.600Z,14.40
2023-04-05T12:45:25.052Z,14.40
2023-04-05T12:47:58.336Z,14.40
2023-04-05T12:50:31.991Z,14.40
2023-04-05T12:53:01.644Z,14.40
2023-04-05T12:55:31.817Z,14.40
2023-04-05T12:58:03.667Z,14.30
2023-04-05T13:00:32.721Z,14.30
2023-04-05T13:03:01.345Z,14.30
2023-04-05T13:05:31.684Z,14.30
2023-04-05T13:08:00.183Z,14.30
2023-04-05T13:10:28.150Z,14.30
2023-04-05T13:12:57.690Z,14.20
2023-04-05T13:15:25.811Z,14.20
2023-04-05T13:17:55.027Z,14.20
2023-04-05T13:20:23.244Z,14.20
2023-04-05T13:22:51.760Z,14.20
2023-04-05T13:25:19.709Z,14.20
2023-04-05T13:27:48.764Z,14.10
2023-04-05T13:30:18.806Z,14.10
2023-04-05T13:32:46.899Z,14.10
2023-04-05T13:35:14.878Z,14.10
2023-04-05T13:37:42.732Z,14.10
2023-04-05T13:40:11.617Z,14.10
2023-04-05T13:42:39.522Z,14.10
2023-04-05T13:45:08.836Z,14.00
2023-04-05T13:47:38.148Z,14.00
2023-04-05T13:50:08.070Z,14.00
2023-04-05T13:52:37.392Z,14.00
2023-04-05T13:55:06.294Z,14.00
2023-04-05T13:57:34.227Z,14.00
2023-04-05T14:00:02.277Z,14.00
2023-04-05T14:02:41.721Z,14.00
2023-04-05T14:05:10.799Z,14.00
2023-04-05T14:07:39.393Z,13.90
2023-04-05T14:10:08.569Z,13.90
2023-04-05T14:12:37.138Z,13.90
2023-04-05T14:15:06.122Z,13.90
2023-04-05T14:17:34.004Z,13.90
2023-04-05T14:20:03.362Z,13.90
2023-04-05T14:22:31.445Z,13.90
2023-04-05T14:24:59.311Z,13.90
2023-04-05T14:27:28.425Z,13.90
2023-04-05T14:29:57.266Z,13.90
2023-04-05T14:32:25.734Z,13.90
2023-04-05T14:34:54.118Z,13.90
2023-04-05T14:37:23.342Z,13.90
2023-04-05T14:39:51.199Z,14.00
2023-04-05T14:42:19.052Z,14.00
2023-04-05T14:44:49.649Z,14.00
2023-04-05T14:47:17.542Z,14.00
2023-04-05T14:49:45.496Z,14.00
2023-04-05T14:52:13.973Z,14.00
2023-04-05T14:54:43.332Z,14.00
2023-04-05T14:57:11.251Z,14.00
2023-04-05T14:59:39.094Z,14.00
2023-04-05T15:02:07.018Z,14.00
2023-04-05T15:04:35.058Z,14.00
2023-04-05T15:07:02.943Z,14.00
2023-04-05T15:09:30.841Z,14.00
2023-04-05T15:12:00.851Z,14.00
2023-04-05T15:14:32.318Z,14.00
2023-04-05T15:17:00.764Z,14.00
2023-04-05T15:19:30.381Z,14.00
2023-04-05T15:21:58.473Z,13.90
2023-04-05T15:24:26.722Z,14.00
2023-04-05T15:26:58.470Z,13.90
2023-04-05T15:29:28.369Z,13.90
2023-04-05T15:31:57.743Z,13.90
2023-04-05T15:34:25.788Z,13.90
2023-04-05T15:36:54.332Z,13.90
2023-04-05T15:39:22.749Z,13.80
2023-04-05T15:41:51.558Z,13.90
2023-04-05T15:44:19.474Z,13.90
2023-04-05T15:46:48.770Z,13.80
2023-04-05T15:49:17.724Z,13.80
2023-04-05T15:51:46.040Z,13.80
2023-04-05T15:54:18.415Z,13.80
2023-04-05T15:56:46.434Z,13.80
2023-04-05T15:59:15.354Z,13.70
2023-04-05T16:01:43.795Z,13.70
2023-04-05T16:04:13.169Z,13.70
2023-04-05T16:06:41.390Z,13.70
2023-04-05T16:09:09.682Z,13.70
2023-04-05T16:11:37.660Z,13.60
2023-04-05T16:14:05.611Z,13.60
2023-04-05T16:16:41.937Z,13.60
2023-04-05T16:19:15.065Z,13.60
2023-04-05T16:21:42.974Z,13.60
2023-04-05T16:24:11.083Z,13.60
2023-04-05T16:26:39.017Z,13.60
2023-04-05T16:29:07.007Z,13.60
2023-04-05T16:31:36.089Z,13.60
2023-04-05T16:34:04.285Z,13.60
2023-04-05T16:36:48.829Z,13.50
2023-04-05T16:39:17.167Z,13.50
2023-04-05T16:41:45.154Z,13.50
2023-04-05T16:44:13.066Z,13.50
2023-04-05T16:46:41.188Z,13.50
2023-04-05T16:49:09.838Z,13.50
2023-04-05T16:51:37.887Z,13.50
2023-04-05T16:54:07.311Z,13.50
2023-04-05T16:56:35.252Z,13.50
2023-04-05T16:59:04.960Z,13.50
2023-04-05T17:01:34.734Z,13.50
2023-04-05T17:04:02.852Z,13.50
2023-04-05T17:06:31.725Z,13.40
2023-04-05T17:08:59.621Z,13.40
2023-04-05T17:11:29.126Z,13.40
2023-04-05T17:13:59.243Z,13.40
2023-04-05T17:16:27.448Z,13.40
2023-04-05T17:18:55.483Z,13.40
2023-04-05T17:21:23.837Z,13.40
2023-04-05T17:23:51.709Z,13.40
2023-04-05T17:26:19.634Z,13.40
2023-04-05T17:28:48.871Z,13.40
2023-04-05T17:31:16.947Z,13.40
2023-04-05T17:33:47.779Z,13.40
2023-04-05T17:36:16.588Z,13.40
2023-04-05T17:38:44.884Z,13.30
2023-04-05T17:41:13.021Z,13.30
2023-04-05T17:43:40.920Z,13.40
2023-04-05T17:46:13.634Z,13.30
2023-04-05T17:48:41.731Z,13.30
2023-04-05T17:51:10.520Z,13.30
2023-04-05T17:53:38.533Z,13.30
2023-04-05T17:56:06.770Z,13.30
2023-04-05T17:58:34.734Z,13.30
2023-04-05T18:01:02.644Z,13.30
2023-04-05T18:03:32.206Z,13.30
2023-04-05T18:06:00.151Z,13.30
2023-04-05T18:08:28.967Z,13.30
2023-04-05T18:10:58.198Z,13.30
2023-04-05T18:13:27.197Z,13.30
2023-04-05T18:15:55.861Z,13.30
2023-04-05T18:18:24.248Z,13.20
2023-04-05T18:20:54.651Z,13.20
2023-04-05T18:23:24.747Z,13.30
2023-04-05T18:25:54.055Z,13.30
2023-04-05T18:28:23.787Z,13.20
2023-04-05T18:30:52.754Z,13.20
2023-04-05T18:33:22.318Z,13.20
2023-04-05T18:35:51.681Z,13.20
2023-04-05T18:38:21.773Z,13.20
2023-04-05T18:40:49.694Z,13.20
2023-04-05T18:43:17.863Z,13.20
2023-04-05T18:45:46.068Z,13.20
2023-04-05T18:48:15.420Z,13.20
2023-04-05T18:50:45.725Z,13.20
2023-04-05T18:53:13.684Z,13.20
2023-04-05T18:55:43.124Z,13.20
2023-04-05T18:58:11.156Z,13.20
2023-04-05T19:00:39.230Z,13.10
2023-04-05T19:03:07.208Z,13.10
2023-04-05T19:05:36.134Z,13.10
2023-04-05T19:08:04.196Z,13.10
2023-04-05T19:10:32.169Z,13.10
2023-04-05T19:13:01.475Z,13.10
2023-04-05T19:15:29.526Z,13.10
2023-04-05T19:17:58.342Z,13.10
2023-04-05T19:20:26.565Z,13.10
2023-04-05T19:22:54.522Z,13.10
2023-04-05T19:25:22.584Z,13.10
2023-04-05T19:27:50.593Z,13.10
2023-04-05T19:30:20.176Z,13.00
2023-04-05T19:32:48.247Z,13.10
2023-04-05T19:35:16.454Z,13.00
2023-04-05T19:37:44.590Z,13.00
2023-04-05T19:40:13.038Z,13.00
2023-04-05T19:42:47.423Z,13.00
2023-04-05T19:45:26.912Z,12.90
2023-04-05T19:47:57.203Z,13.00
2023-04-05T19:50:49.223Z,12.90
2023-04-05T19:53:49.107Z,12.90
2023-04-05T19:56:21.025Z,12.90
2023-04-05T19:58:51.621Z,12.90
2023-04-05T20:01:34.662Z,12.90
2023-04-05T20:04:11.608Z,12.80
2023-04-05T20:06:41.239Z,12.80
2023-04-05T20:09:11.379Z,12.90
2023-04-05T20:11:39.408Z,12.80
2023-04-05T20:14:09.766Z,12.80
2023-04-05T20:16:40.171Z,12.80
2023-04-05T20:19:10.583Z,12.80
2023-04-05T20:21:39.349Z,12.80
2023-04-05T20:24:10.608Z,12.80
2023-04-05T20:26:38.581Z,12.80
2023-04-05T20:29:09.313Z,12.70
2023-04-05T20:31:40.365Z,12.80
2023-04-05T20:34:13.222Z,12.70
2023-04-05T20:36:49.035Z,12.70
2023-04-05T20:39:17.349Z,12.70
2023-04-05T20:41:47.026Z,12.70
2023-04-05T20:44:15.033Z,12.70
2023-04-05T20:46:44.536Z,12.60
2023-04-05T20:49:13.033Z,12.60
2023-04-05T20:51:42.998Z,12.60
2023-04-05T20:54:11.505Z,12.60
2023-04-05T20:56:39.746Z,12.60
2023-04-05T20:59:08.016Z,12.60
2023-04-05T21:01:37.703Z,12.50
2023-04-05T21:04:07.293Z,12.50
2023-04-05T21:06:36.609Z,12.50
2023-04-05T21:09:05.397Z,12.50
2023-04-05T21:11:33.290Z,12.50
2023-04-05T21:14:01.347Z,12.40
2023-04-05T21:16:29.258Z,12.40
2023-04-05T21:18:57.168Z,12.40
2023-04-05T21:21:27.278Z,12.40
2023-04-05T21:23:55.341Z,12.30
2023-04-05T21:26:23.318Z,12.30
2023-04-05T21:28:51.209Z,12.30
2023-04-05T21:31:19.124Z,12.30
2023-04-05T21:33:47.040Z,12.20
2023-04-05T21:36:14.947Z,12.20
2023-04-05T21:38:44.156Z,12.20
2023-04-05T21:41:12.045Z,12.20
2023-04-05T21:43:39.949Z,12.20
2023-04-05T21:46:07.820Z,12.10
2023-04-05T21:48:35.744Z,12.10
2023-04-05T21:51:03.759Z,12.10
2023-04-05T21:53:31.863Z,12.00
2023-04-05T21:56:01.028Z,12.00
2023-04-05T21:58:28.893Z,12.00
2023-04-05T22:00:56.823Z,12.00
2023-04-05T22:03:25.291Z,12.00
2023-04-05T22:05:53.268Z,11.90
2023-04-05T22:08:21.260Z,11.90
2023-04-05T22:10:49.379Z,11.90
2023-04-05T22:13:18.619Z,11.90
2023-04-05T22:15:46.903Z,11.80
2023-04-05T22:18:14.990Z,11.80
2023-04-05T22:20:42.957Z,11.80
2023-04-05T22:23:11.046Z,11.80
2023-04-05T22:25:38.943Z,11.70
2023-04-05T22:28:06.860Z,11.70
2023-04-05T22:30:43.907Z,11.70
2023-04-05T22:33:13.686Z,11.70
2023-04-05T22:35:42.313Z,11.70
2023-04-05T22:38:10.345Z,11.60
2023-04-05T22:40:38.223Z,11.60
2023-04-05T22:43:06.496Z,11.60
2023-04-05T22:45:35.799Z,11.50
2023-04-05T22:48:03.839Z,11.50
2023-04-05T22:50:31.864Z,11.50
2023-04-05T22:52:59.733Z,11.50
2023-04-05T22:55:27.623Z,11.50
2023-04-05T22:57:55.472Z,11.40
2023-04-05T23:00:23.466Z,11.40
2023-04-05T23:02:52.773Z,11.40
2023-04-05T23:05:20.709Z,11.30
2023-04-05T23:07:48.574Z,11.30
2023-04-05T23:10:16.740Z,11.30
2023-04-05T23:12:48.180Z,11.30
2023-04-05T23:15:16.137Z,11.30
2023-04-05T23:17:44.133Z,11.20
2023-04-05T23:20:14.005Z,11.20
2023-04-05T23:22:41.931Z,11.20
2023-04-05T23:25:10.656Z,11.20
2023-04-05T23:27:38.521Z,11.10
2023-04-05T23:30:08.375Z,11.10
2023-04-05T23:32:36.289Z,11.10
2023-04-05T23:35:04.430Z,11.10
2023-04-05T23:37:33.808Z,11.00
2023-04-05T23:40:01.718Z,11.00
2023-04-05T23:42:29.656Z,11.00
2023-04-05T23:44:57.523Z,11.00
2023-04-05T23:47:25.905Z,10.90
2023-04-05T23:49:53.777Z,10.90
2023-04-05T23:52:21.941Z,10.90
2023-04-05T23:54:51.135Z,10.90
2023-04-05T23:57:19.058Z,10.90
2023-04-05T23:59:46.957Z,10.80
